createdAt,value
2023-02-08T00:00:23.727Z,71.50
2023-02-08T00:03:09.302Z,71.10
2023-02-08T00:05:54.877Z,71.20
2023-02-08T00:08:41.054Z,70.00
2023-02-08T00:11:26.234Z,70.30
2023-02-08T00:14:11.929Z,69.80
2023-02-08T00:16:57.469Z,69.10
2023-02-08T00:19:43.174Z,68.90
2023-02-08T00:22:28.605Z,68.90
2023-02-08T00:25:14.128Z,69.40
2023-02-08T00:27:59.577Z,69.80
2023-02-08T00:30:45.474Z,70.80
2023-02-08T00:33:30.879Z,71.40
2023-02-08T00:36:16.444Z,70.90
2023-02-08T00:39:02.338Z,71.40
2023-02-08T00:41:48.128Z,71.80
2023-02-08T00:44:33.395Z,73.70
2023-02-08T00:47:19.090Z,75.50
2023-02-08T00:50:05.276Z,76.50
2023-02-08T00:52:50.889Z,76.60
2023-02-08T00:55:36.365Z,77.70
2023-02-08T00:58:22.604Z,79.10
2023-02-08T01:01:09.026Z,79.30
2023-02-08T01:03:54.429Z,80.70
2023-02-08T01:06:40.033Z,82.90
2023-02-08T01:09:25.640Z,82.90
2023-02-08T01:12:11.299Z,82.70
2023-02-08T01:14:56.649Z,82.10
2023-02-08T01:17:42.221Z,82.10
2023-02-08T01:20:27.590Z,82.80
2023-02-08T01:23:13.284Z,84.40
2023-02-08T01:25:58.774Z,88.90
2023-02-08T01:28:44.733Z,90.00
2023-02-08T01:31:33.268Z,90.50
2023-02-08T01:34:18.701Z,97.40
2023-02-08T01:37:04.335Z,99.90
2023-02-08T01:39:49.503Z,99.90
2023-02-08T01:42:35.037Z,99.90
2023-02-08T01:45:27.666Z,99.90
2023-02-08T01:48:27.366Z,99.90
2023-02-08T01:51:18.881Z,99.90
2023-02-08T01:54:06.667Z,99.90
2023-02-08T01:56:52.722Z,99.90
2023-02-08T01:59:54.877Z,99.90
2023-02-08T02:02:41.760Z,99.90
2023-02-08T02:05:34.176Z,99.90
2023-02-08T02:08:20.130Z,99.90
2023-02-08T02:11:05.751Z,99.90
2023-02-08T02:13:51.616Z,99.90
2023-02-08T02:16:37.071Z,99.90
2023-02-08T02:19:31.760Z,99.90
2023-02-08T02:22:29.139Z,99.90
2023-02-08T02:25:56.356Z,99.90
2023-02-08T02:29:03.103Z,99.90
2023-02-08T02:32:23.107Z,99.90
2023-02-08T02:35:45.684Z,99.90
2023-02-08T02:38:56.287Z,99.00
2023-02-08T02:42:07.824Z,96.20
2023-02-08T02:45:04.835Z,95.70
2023-02-08T02:48:05.729Z,95.70
2023-02-08T02:51:00.643Z,95.00
2023-02-08T02:54:00.898Z,95.30
2023-02-08T02:56:50.665Z,95.80
2023-02-08T02:59:38.439Z,95.80
2023-02-08T03:02:25.258Z,94.70
2023-02-08T03:05:12.080Z,94.60
2023-02-08T03:08:08.489Z,92.60
2023-02-08T03:11:19.337Z,92.00
2023-02-08T03:14:04.997Z,92.20
2023-02-08T03:16:53.594Z,92.60
2023-02-08T03:20:03.309Z,92.00
2023-02-08T03:23:10.620Z,90.00
2023-02-08T03:26:21.073Z,89.10
2023-02-08T03:29:12.278Z,89.60
2023-02-08T03:32:29.834Z,87.70
2023-02-08T03:35:34.215Z,88.10
2023-02-08T03:38:29.306Z,89.50
2023-02-08T03:41:20.963Z,90.00
2023-02-08T03:44:12.318Z,89.50
2023-02-08T03:47:26.541Z,89.70
2023-02-08T03:50:14.668Z,89.70
2023-02-08T03:53:01.894Z,89.50
2023-02-08T03:55:49.477Z,88.90
2023-02-08T03:58:41.849Z,88.70
2023-02-08T04:01:32.593Z,89.40
2023-02-08T04:04:19.794Z,89.10
2023-02-08T04:07:05.967Z,89.50
2023-02-08T04:09:51.328Z,89.40
2023-02-08T04:12:36.932Z,88.90
2023-02-08T04:15:22.632Z,86.90
2023-02-08T04:18:07.821Z,87.80
2023-02-08T04:20:53.387Z,85.10
2023-02-08T04:23:38.815Z,85.50
2023-02-08T04:26:24.432Z,86.20
2023-02-08T04:29:10.058Z,86.10
2023-02-08T04:31:55.556Z,86.30
2023-02-08T04:34:41.409Z,85.00
2023-02-08T04:37:26.802Z,85.40
2023-02-08T04:40:12.291Z,85.40
2023-02-08T04:42:57.920Z,85.40
2023-02-08T04:45:43.447Z,85.70
2023-02-08T04:48:28.986Z,85.30
2023-02-08T04:51:14.298Z,84.70
2023-02-08T04:53:59.622Z,82.80
2023-02-08T04:56:45.274Z,81.50
2023-02-08T04:59:30.721Z,80.40
2023-02-08T05:02:16.313Z,81.60
2023-02-08T05:05:01.877Z,81.40
2023-02-08T05:07:47.796Z,80.60
2023-02-08T05:10:33.245Z,80.20
2023-02-08T05:13:18.814Z,78.10
2023-02-08T05:16:04.282Z,79.00
2023-02-08T05:18:49.508Z,78.20
2023-02-08T05:21:35.141Z,78.80
2023-02-08T05:24:20.433Z,78.20
2023-02-08T05:27:05.742Z,77.40
2023-02-08T05:29:51.451Z,77.00
2023-02-08T05:32:37.050Z,76.30
2023-02-08T05:35:22.637Z,77.50
2023-02-08T05:38:08.422Z,76.60
2023-02-08T05:40:53.809Z,76.10
2023-02-08T05:43:39.428Z,76.50
2023-02-08T05:46:24.983Z,76.20
2023-02-08T05:49:10.458Z,76.80
2023-02-08T05:51:56.191Z,76.20
2023-02-08T05:54:41.741Z,76.20
2023-02-08T05:57:27.079Z,75.50
2023-02-08T06:00:13.178Z,75.10
2023-02-08T06:02:58.923Z,74.80
2023-02-08T06:05:44.431Z,73.50
2023-02-08T06:08:30.082Z,73.60
2023-02-08T06:11:15.464Z,71.20
2023-02-08T06:14:00.857Z,72.00
2023-02-08T06:16:46.483Z,71.90
2023-02-08T06:19:31.921Z,72.50
2023-02-08T06:22:17.433Z,71.50
2023-02-08T06:25:02.866Z,71.60
2023-02-08T06:27:48.333Z,72.00
2023-02-08T06:30:34.270Z,72.10
2023-02-08T06:33:20.171Z,71.50
2023-02-08T06:36:05.937Z,70.20
2023-02-08T06:38:51.634Z,71.60
2023-02-08T06:41:37.038Z,71.20
2023-02-08T06:44:22.608Z,71.40
2023-02-08T06:47:08.100Z,69.40
2023-02-08T06:49:54.171Z,70.00
2023-02-08T06:52:39.848Z,70.50
2023-02-08T06:55:25.423Z,70.20
2023-02-08T06:58:11.238Z,70.40
2023-02-08T07:00:56.542Z,69.50
2023-02-08T07:03:42.212Z,69.50
2023-02-08T07:06:27.518Z,69.00
2023-02-08T07:09:12.928Z,68.30
2023-02-08T07:11:58.165Z,67.40
2023-02-08T07:14:44.445Z,67.60
2023-02-08T07:17:29.786Z,68.00
2023-02-08T07:20:15.541Z,68.00
2023-02-08T07:23:00.855Z,68.10
2023-02-08T07:25:46.539Z,68.00
2023-02-08T07:28:32.146Z,68.40
2023-02-08T07:31:18.149Z,67.10
2023-02-08T07:34:03.830Z,66.90
2023-02-08T07:36:49.850Z,67.00
2023-02-08T07:39:35.378Z,67.50
2023-02-08T07:42:20.704Z,67.30
2023-02-08T07:45:06.022Z,67.30
2023-02-08T07:47:51.416Z,64.70
2023-02-08T07:50:36.921Z,66.50
2023-02-08T07:53:22.532Z,66.20
2023-02-08T07:56:08.205Z,66.20
2023-02-08T07:58:53.456Z,66.20
2023-02-08T08:01:39.130Z,67.50
2023-02-08T08:04:24.609Z,68.40
2023-02-08T08:07:10.240Z,69.30
2023-02-08T08:09:55.792Z,68.10
2023-02-08T08:12:41.525Z,68.70
2023-02-08T08:15:27.468Z,67.00
2023-02-08T08:18:13.069Z,67.30
2023-02-08T08:20:58.504Z,67.60
2023-02-08T08:23:44.311Z,68.90
2023-02-08T08:26:29.907Z,68.30
2023-02-08T08:29:15.618Z,68.40
2023-02-08T08:32:01.024Z,67.30
2023-02-08T08:34:46.232Z,67.10
2023-02-08T08:37:32.353Z,67.30
2023-02-08T08:40:17.859Z,67.30
2023-02-08T08:43:03.120Z,67.40
2023-02-08T08:45:49.549Z,65.90
2023-02-08T08:48:36.264Z,68.10
2023-02-08T08:51:21.991Z,68.40
2023-02-08T08:54:07.996Z,68.20
2023-02-08T08:56:53.587Z,67.30
2023-02-08T08:59:39.140Z,65.00
2023-02-08T09:02:24.576Z,65.30
2023-02-08T09:05:09.795Z,65.60
2023-02-08T09:07:55.326Z,66.30
2023-02-08T09:10:41.153Z,65.40
2023-02-08T09:13:26.431Z,65.80
2023-02-08T09:16:17.967Z,67.20
2023-02-08T09:19:08.699Z,66.80
2023-02-08T09:21:54.149Z,67.30
2023-02-08T09:24:40.067Z,64.50
2023-02-08T09:27:25.674Z,64.60
2023-02-08T09:30:11.624Z,64.20
2023-02-08T09:32:57.248Z,64.90
2023-02-08T09:35:43.137Z,62.80
2023-02-08T09:38:29.312Z,61.80
2023-02-08T09:41:17.935Z,63.70
2023-02-08T09:44:35.521Z,64.10
2023-02-08T09:47:28.693Z,64.20
2023-02-08T09:50:24.146Z,64.80
2023-02-08T09:53:23.768Z,64.90
2023-02-08T09:56:14.557Z,63.00
2023-02-08T09:59:01.922Z,61.90
2023-02-08T10:01:50.329Z,62.80
2023-02-08T10:04:55.412Z,64.30
2023-02-08T10:07:41.438Z,61.50
2023-02-08T10:10:38.612Z,60.40
2023-02-08T10:13:41.768Z,60.20
2023-02-08T10:17:02.813Z,61.20
2023-02-08T10:20:40.002Z,60.80
2023-02-08T10:23:39.690Z,61.10
2023-02-08T10:26:49.109Z,60.10
2023-02-08T10:30:01.136Z,59.20
2023-02-08T10:32:55.685Z,61.70
2023-02-08T10:35:46.621Z,59.50
2023-02-08T10:38:45.972Z,60.00
2023-02-08T10:41:36.040Z,62.20
2023-02-08T10:44:25.432Z,59.10
2023-02-08T10:47:20.808Z,57.80
2023-02-08T10:50:27.108Z,56.50
2023-02-08T10:53:16.882Z,57.10
2023-02-08T10:56:03.228Z,56.80
2023-02-08T10:58:48.484Z,54.60
2023-02-08T11:01:34.465Z,54.90
2023-02-08T11:04:20.810Z,55.50
2023-02-08T11:07:21.272Z,54.20
2023-02-08T11:10:18.943Z,55.50
2023-02-08T11:13:13.547Z,54.10
2023-02-08T11:16:05.371Z,51.70
2023-02-08T11:18:58.215Z,55.20
2023-02-08T11:21:50.882Z,53.90
2023-02-08T11:24:43.596Z,53.60
2023-02-08T11:27:28.772Z,52.80
2023-02-08T11:30:14.342Z,53.20
2023-02-08T11:33:19.295Z,52.30
2023-02-08T11:36:07.912Z,52.70
2023-02-08T11:38:53.495Z,51.00
2023-02-08T11:41:45.037Z,52.70
2023-02-08T11:44:42.133Z,49.30
2023-02-08T11:47:31.678Z,51.90
2023-02-08T11:50:33.928Z,52.30
2023-02-08T11:53:27.990Z,51.90
2023-02-08T11:56:21.569Z,51.10
2023-02-08T11:59:24.417Z,51.50
2023-02-08T12:02:29.855Z,50.00
2023-02-08T12:05:18.859Z,51.40
2023-02-08T12:08:31.102Z,52.20
2023-02-08T12:11:45.971Z,50.10
2023-02-08T12:15:08.335Z,51.10
2023-02-08T12:18:16.216Z,53.20
2023-02-08T12:21:11.337Z,49.90
2023-02-08T12:24:05.372Z,50.30
2023-02-08T12:26:59.894Z,51.40
2023-02-08T12:30:07.352Z,51.10
2023-02-08T12:33:20.091Z,49.50
2023-02-08T12:36:14.916Z,49.20
2023-02-08T12:39:31.157Z,45.30
2023-02-08T12:42:38.522Z,47.40
2023-02-08T12:45:44.106Z,48.00
2023-02-08T12:48:49.497Z,49.40
2023-02-08T12:52:00.389Z,47.80
2023-02-08T12:54:51.766Z,47.80
2023-02-08T12:57:39.769Z,46.00
2023-02-08T13:00:26.830Z,45.00
2023-02-08T13:03:32.325Z,46.70
2023-02-08T13:06:28.834Z,44.50
2023-02-08T13:09:34.449Z,44.80
2023-02-08T13:12:32.708Z,49.30
2023-02-08T13:15:31.109Z,50.20
2023-02-08T13:18:43.460Z,50.50
2023-02-08T13:21:37.963Z,46.30
2023-02-08T13:24:33.274Z,47.20
2023-02-08T13:27:21.606Z,50.70
2023-02-08T13:30:16.355Z,47.70
2023-02-08T13:33:14.669Z,49.40
2023-02-08T13:36:00.651Z,45.50
2023-02-08T13:38:48.517Z,47.00
2023-02-08T13:41:35.716Z,44.40
2023-02-08T13:44:32.361Z,42.70
2023-02-08T13:47:28.686Z,45.90
2023-02-08T13:50:41.495Z,43.90
2023-02-08T13:53:39.501Z,41.50
2023-02-08T13:56:48.305Z,42.80
2023-02-08T13:59:41.296Z,43.60
2023-02-08T14:02:28.272Z,45.70
2023-02-08T14:05:42.306Z,45.50
2023-02-08T14:08:39.717Z,43.40
2023-02-08T14:11:31.240Z,42.00
2023-02-08T14:14:23.297Z,38.50
2023-02-08T14:17:25.428Z,41.00
2023-02-08T14:20:20.151Z,39.70
2023-02-08T14:23:27.071Z,38.40
2023-02-08T14:26:24.320Z,37.50
2023-02-08T14:29:24.088Z,39.10
2023-02-08T14:32:14.279Z,37.20
2023-02-08T14:35:01.268Z,36.50
2023-02-08T14:37:48.837Z,35.70
2023-02-08T14:40:54.965Z,35.20
2023-02-08T14:43:42.543Z,34.80
2023-02-08T14:46:43.617Z,35.20
2023-02-08T14:49:37.516Z,33.30
2023-02-08T14:52:25.536Z,36.40
2023-02-08T14:55:19.657Z,33.30
2023-02-08T14:58:08.158Z,31.10
2023-02-08T15:00:54.920Z,33.80
2023-02-08T15:03:42.329Z,34.00
2023-02-08T15:06:53.685Z,32.50
2023-02-08T15:09:42.268Z,33.00
2023-02-08T15:12:32.161Z,33.00
2023-02-08T15:15:28.811Z,31.30
2023-02-08T15:18:25.124Z,31.40
2023-02-08T15:21:18.798Z,32.10
2023-02-08T15:24:16.205Z,32.90
2023-02-08T15:27:01.732Z,33.50
2023-02-08T15:29:48.939Z,36.60
2023-02-08T15:32:34.518Z,36.60
2023-02-08T15:35:20.660Z,35.90
2023-02-08T15:38:16.757Z,36.30
2023-02-08T15:41:12.136Z,36.50
2023-02-08T15:44:22.182Z,39.10
2023-02-08T15:47:15.193Z,39.30
2023-02-08T15:50:02.064Z,39.30
2023-02-08T15:52:48.387Z,39.00
2023-02-08T15:55:39.626Z,40.00
2023-02-08T15:58:43.965Z,40.90
2023-02-08T16:01:31.705Z,40.10
2023-02-08T16:04:17.510Z,41.50
2023-02-08T16:07:03.214Z,42.10
2023-02-08T16:09:48.859Z,42.80
2023-02-08T16:12:34.884Z,43.90
2023-02-08T16:15:42.217Z,44.10
2023-02-08T16:18:39.912Z,45.30
2023-02-08T16:21:25.456Z,45.70
2023-02-08T16:24:10.927Z,46.30
2023-02-08T16:27:14.956Z,47.00
2023-02-08T16:30:00.539Z,49.00
2023-02-08T16:32:46.825Z,49.00
2023-02-08T16:35:33.536Z,49.70
2023-02-08T16:38:23.519Z,49.90
2023-02-08T16:41:13.338Z,49.30
2023-02-08T16:44:29.165Z,49.70
2023-02-08T16:47:27.465Z,50.00
2023-02-08T16:50:21.110Z,50.30
2023-02-08T16:53:06.383Z,50.50
2023-02-08T16:55:51.947Z,50.80
2023-02-08T16:58:37.684Z,51.60
2023-02-08T17:01:26.351Z,51.00
2023-02-08T17:04:12.177Z,51.00
2023-02-08T17:06:57.761Z,51.90
2023-02-08T17:09:42.921Z,51.90
2023-02-08T17:12:28.562Z,51.60
2023-02-08T17:15:13.871Z,51.70
2023-02-08T17:17:59.324Z,51.80
2023-02-08T17:20:45.818Z,51.70
2023-02-08T17:23:31.390Z,52.40
2023-02-08T17:26:19.936Z,52.60
2023-02-08T17:29:05.773Z,52.40
2023-02-08T17:31:51.194Z,52.10
2023-02-08T17:34:36.731Z,52.30
2023-02-08T17:37:22.360Z,52.60
2023-02-08T17:40:08.263Z,53.00
2023-02-08T17:42:54.141Z,52.60
2023-02-08T17:45:41.658Z,52.30
2023-02-08T17:48:27.341Z,52.90
2023-02-08T17:51:16.372Z,53.20
2023-02-08T17:54:05.608Z,53.60
2023-02-08T17:56:56.556Z,53.40
2023-02-08T17:59:42.084Z,54.30
2023-02-08T18:02:27.711Z,54.60
2023-02-08T18:05:17.373Z,55.10
2023-02-08T18:08:03.142Z,55.50
2023-02-08T18:10:48.427Z,55.70
2023-02-08T18:13:37.430Z,56.00
2023-02-08T18:16:27.781Z,56.10
2023-02-08T18:19:12.874Z,56.00
2023-02-08T18:22:01.050Z,56.40
2023-02-08T18:24:48.294Z,56.20
2023-02-08T18:27:34.296Z,56.30
2023-02-08T18:30:20.371Z,56.80
2023-02-08T18:33:05.607Z,56.80
2023-02-08T18:35:51.108Z,56.70
2023-02-08T18:38:37.428Z,56.70
2023-02-08T18:41:26.085Z,56.70
2023-02-08T18:44:11.333Z,56.80
2023-02-08T18:46:56.993Z,56.60
2023-02-08T18:49:42.588Z,56.90
2023-02-08T18:52:28.818Z,57.20
2023-02-08T18:55:15.028Z,57.10
2023-02-08T18:58:00.325Z,56.70
2023-02-08T19:00:45.854Z,56.90
2023-02-08T19:03:31.188Z,57.60
2023-02-08T19:06:27.817Z,58.00
2023-02-08T19:09:13.276Z,57.90
2023-02-08T19:11:58.644Z,58.00
2023-02-08T19:14:44.226Z,58.00
2023-02-08T19:17:29.502Z,59.00
2023-02-08T19:20:15.159Z,58.60
2023-02-08T19:23:00.313Z,58.80
2023-02-08T19:25:46.638Z,58.90
2023-02-08T19:28:33.867Z,58.80
2023-02-08T19:31:21.853Z,59.10
2023-02-08T19:34:07.756Z,58.70
2023-02-08T19:36:54.237Z,58.90
2023-02-08T19:39:39.886Z,58.90
2023-02-08T19:42:25.224Z,60.00
2023-02-08T19:45:14.369Z,58.90
2023-02-08T19:47:59.664Z,59.00
2023-02-08T19:50:57.822Z,59.20
2023-02-08T19:53:43.233Z,59.00
2023-02-08T19:56:33.817Z,59.20
2023-02-08T19:59:23.715Z,59.50
2023-02-08T20:02:13.927Z,59.30
2023-02-08T20:04:59.165Z,59.80
2023-02-08T20:07:44.571Z,59.90
2023-02-08T20:10:30.236Z,60.30
2023-02-08T20:13:15.991Z,60.80
2023-02-08T20:16:01.864Z,62.50
2023-02-08T20:18:47.267Z,62.90
2023-02-08T20:21:32.770Z,63.10
2023-02-08T20:24:18.360Z,63.20
2023-02-08T20:27:03.982Z,63.70
2023-02-08T20:29:49.501Z,63.60
2023-02-08T20:32:35.099Z,63.30
2023-02-08T20:35:21.622Z,62.90
2023-02-08T20:38:07.249Z,62.40
2023-02-08T20:41:01.660Z,62.60
2023-02-08T20:43:47.332Z,62.20
2023-02-08T20:46:35.316Z,62.30
2023-02-08T20:49:25.251Z,62.70
2023-02-08T20:52:10.721Z,62.20
2023-02-08T20:54:56.082Z,62.50
2023-02-08T20:57:41.285Z,62.60
2023-02-08T21:00:36.791Z,62.60
2023-02-08T21:03:27.367Z,62.60
2023-02-08T21:06:29.413Z,62.60
2023-02-08T21:09:17.734Z,62.80
2023-02-08T21:12:03.393Z,62.60
2023-02-08T21:14:49.564Z,62.90
2023-02-08T21:17:35.024Z,62.50
2023-02-08T21:20:20.688Z,62.60
2023-02-08T21:23:07.150Z,62.80
2023-02-08T21:25:52.478Z,62.60
2023-02-08T21:28:38.046Z,63.10
2023-02-08T21:31:24.725Z,63.40
2023-02-08T21:34:11.784Z,64.20
2023-02-08T21:36:57.228Z,64.80
2023-02-08T21:39:42.879Z,65.40
2023-02-08T21:42:28.110Z,65.50
2023-02-08T21:45:13.716Z,65.10
2023-02-08T21:47:59.994Z,64.80
2023-02-08T21:51:03.967Z,66.30
2023-02-08T21:54:07.802Z,66.80
2023-02-08T21:56:53.002Z,67.90
2023-02-08T21:59:38.783Z,69.20
2023-02-08T22:02:27.741Z,69.20
2023-02-08T22:05:13.116Z,69.40
2023-02-08T22:08:00.007Z,69.60
2023-02-08T22:10:57.603Z,70.20
2023-02-08T22:13:44.884Z,69.60
2023-02-08T22:16:30.331Z,69.30
2023-02-08T22:19:15.982Z,69.30
2023-02-08T22:22:02.346Z,69.50
2023-02-08T22:24:47.571Z,69.60
2023-02-08T22:27:34.396Z,70.10
2023-02-08T22:30:20.714Z,70.90
2023-02-08T22:33:06.041Z,71.60
2023-02-08T22:35:51.642Z,71.90
2023-02-08T22:38:37.764Z,71.50
2023-02-08T22:41:23.454Z,71.80
2023-02-08T22:44:09.065Z,71.90
2023-02-08T22:46:54.440Z,71.60
2023-02-08T22:49:40.393Z,71.80
2023-02-08T22:52:26.349Z,71.60
2023-02-08T22:55:12.386Z,71.30
2023-02-08T22:57:57.921Z,71.10
2023-02-08T23:00:44.852Z,70.10
2023-02-08T23:03:30.388Z,70.10
2023-02-08T23:06:17.408Z,70.10
2023-02-08T23:09:04.968Z,69.60
2023-02-08T23:11:50.695Z,68.90
2023-02-08T23:14:36.139Z,68.60
2023-02-08T23:17:21.479Z,68.60
2023-02-08T23:20:07.581Z,68.00
2023-02-08T23:22:53.100Z,68.40
2023-02-08T23:25:42.353Z,68.60
2023-02-08T23:28:27.930Z,68.90
2023-02-08T23:31:15.304Z,69.10
2023-02-08T23:34:01.307Z,69.60
2023-02-08T23:36:46.694Z,69.40
2023-02-08T23:39:35.150Z,69.60
2023-02-08T23:42:26.194Z,70.70
2023-02-08T23:45:11.934Z,71.40
2023-02-08T23:47:57.394Z,71.90
2023-02-08T23:50:43.166Z,71.90
2023-02-08T23:53:30.384Z,72.50
2023-02-08T23:56:22.895Z,75.80
2023-02-08T23:59:10.906Z,79.90
